Time;durP1;ratioP1;P1;durP2;ratioP2;P2;SDS_P1;SDS_P2;PMS_P1;PMS_P2;Temp;Humidity;BMP_temperature;BMP_pressure;BME280_temperature;BME280_humidity;BME280_pressure;Samples;Min_cycle;Max_cycle;Signal;HPM_P1;HPM_P2
2022/03/28 00:01:39;;;;;;;;;;;6.00;99.90;;;;;;5111918;28;19924;-72
2022/03/28 00:04:04;;;;;;;;;;;6.10;99.90;;;;;;5112756;28;19924;-72
2022/03/28 00:06:30;;;;;;;;;;;6.10;99.90;;;;;;5095193;28;19915;-72
2022/03/28 00:08:56;;;;;;;;;;;6.10;99.90;;;;;;5110893;28;20030;-80
2022/03/28 00:11:21;;;;;;;;;;;6.10;99.90;;;;;;5096620;28;19919;-79
2022/03/28 00:13:47;;;;;;;;;;;6.10;99.90;;;;;;5096056;28;19915;-80
2022/03/28 00:16:13;;;;;;;;;;;6.10;99.90;;;;;;5112912;28;19919;-70
2022/03/28 00:18:39;;;;;;;;;;;6.10;99.90;;;;;;5111981;28;19967;-70
2022/03/28 00:21:05;;;;;;;;;;;6.10;99.90;;;;;;5112080;28;19974;-72
2022/03/28 00:23:32;;;;;;;;;;;6.10;99.90;;;;;;5111836;28;20381;-78
2022/03/28 00:25:58;;;;;;;;;;;6.10;99.90;;;;;;5112916;28;19930;-78
2022/03/28 00:28:24;;;;;;;;;;;6.10;99.90;;;;;;5112918;28;19915;-80
2022/03/28 00:30:50;;;;;;;;;;;6.10;99.90;;;;;;5112632;28;21011;-78
2022/03/28 00:33:17;;;;;;;;;;;6.00;99.90;;;;;;5112933;28;20018;-78
2022/03/28 00:35:42;;;;;;;;;;;6.00;99.90;;;;;;5095384;28;19999;-78
2022/03/28 00:38:09;;;;;;;;;;;6.00;99.90;;;;;;5112415;28;20002;-79
2022/03/28 00:40:34;;;;;;;;;;;6.00;99.90;;;;;;5092702;28;20297;-80
2022/03/28 00:43:03;;;;;;;;;;;6.00;99.90;;;;;;5104287;28;20014;-80
2022/03/28 00:45:32;;;;;;;;;;;5.90;99.90;;;;;;5112740;28;19922;-80
2022/03/28 00:47:58;;;;;;;;;;;5.90;99.90;;;;;;5095459;28;19919;-80
2022/03/28 00:50:24;;;;;;;;;;;6.00;99.90;;;;;;5112849;28;20290;-80
2022/03/28 00:52:50;;;;;;;;;;;5.90;99.90;;;;;;5113437;28;19916;-80
2022/03/28 00:55:16;;;;;;;;;;;5.80;99.90;;;;;;5112552;28;19923;-79
2022/03/28 00:57:42;;;;;;;;;;;5.80;99.90;;;;;;5112021;28;19919;-80
2022/03/28 01:00:09;;;;;;;;;;;5.90;99.90;;;;;;5095230;28;20136;-79
2022/03/28 01:02:35;;;;;;;;;;;5.80;99.90;;;;;;5092967;28;20374;-79
2022/03/28 01:05:00;;;;;;;;;;;5.80;99.90;;;;;;5111396;28;20007;-79
2022/03/28 01:07:26;;;;;;;;;;;5.80;99.90;;;;;;5111574;28;19922;-80
2022/03/28 01:09:54;;;;;;;;;;;5.80;99.90;;;;;;5111095;28;19926;-80
2022/03/28 01:12:20;;;;;;;;;;;5.70;99.90;;;;;;5111740;28;20305;-80
2022/03/28 01:14:46;;;;;;;;;;;5.70;99.90;;;;;;5111830;28;20366;-80
2022/03/28 01:19:56;;;;;;;;;;;5.80;99.90;;;;;;5111095;28;19964;-80
2022/03/28 01:22:22;;;;;;;;;;;5.70;99.90;;;;;;5111304;28;19920;-81
2022/03/28 01:24:47;;;;;;;;;;;5.70;99.90;;;;;;5111320;28;20028;-80
2022/03/28 01:27:14;;;;;;;;;;;5.70;99.90;;;;;;5111098;28;19955;-79
2022/03/28 01:29:42;;;;;;;;;;;5.70;99.90;;;;;;5111946;28;19919;-79
2022/03/28 01:32:08;;;;;;;;;;;5.80;99.90;;;;;;5094029;28;20287;-79
2022/03/28 01:34:34;;;;;;;;;;;5.80;99.90;;;;;;5110345;28;19968;-79
2022/03/28 01:36:59;;;;;;;;;;;5.80;99.90;;;;;;5110494;28;19924;-80
2022/03/28 01:39:26;;;;;;;;;;;5.80;99.90;;;;;;5106145;28;20393;-70
2022/03/28 01:41:52;;;;;;;;;;;5.70;99.90;;;;;;5110389;28;19968;-72
2022/03/28 01:44:17;;;;;;;;;;;5.70;99.90;;;;;;5110377;28;20414;-72
2022/03/28 01:46:44;;;;;;;;;;;5.80;99.90;;;;;;5110971;28;20007;-79
2022/03/28 01:49:10;;;;;;;;;;;5.80;99.90;;;;;;5084581;28;19943;-78
2022/03/28 01:51:36;;;;;;;;;;;5.80;99.90;;;;;;5098869;28;19961;-80
2022/03/28 01:54:02;;;;;;;;;;;5.70;99.90;;;;;;5112052;28;19919;-80
2022/03/28 01:56:28;;;;;;;;;;;5.80;99.90;;;;;;5093355;28;19916;-79
2022/03/28 01:58:54;;;;;;;;;;;5.70;99.90;;;;;;5086371;28;20002;-80
2022/03/28 02:01:19;;;;;;;;;;;5.80;99.90;;;;;;5109479;28;20450;-81
2022/03/28 02:03:45;;;;;;;;;;;5.70;99.90;;;;;;5109979;28;19919;-81
2022/03/28 02:06:11;;;;;;;;;;;5.80;99.90;;;;;;5100667;28;19916;-80
2022/03/28 02:08:37;;;;;;;;;;;5.80;99.90;;;;;;5112054;27;20046;-79
2022/03/28 02:11:02;;;;;;;;;;;5.80;99.90;;;;;;5114367;27;19926;-79
2022/03/28 02:13:28;;;;;;;;;;;5.80;99.90;;;;;;5114288;27;19915;-79
2022/03/28 02:15:53;;;;;;;;;;;5.80;99.90;;;;;;5114379;27;19923;-79
2022/03/28 02:18:19;;;;;;;;;;;5.80;99.90;;;;;;5132522;27;19916;-79
2022/03/28 02:20:44;;;;;;;;;;;5.90;99.90;;;;;;5113910;28;19959;-79
2022/03/28 02:23:10;;;;;;;;;;;5.80;99.90;;;;;;5114207;28;19919;-79
2022/03/28 02:25:37;;;;;;;;;;;5.80;99.90;;;;;;5114091;28;20010;-79
2022/03/28 02:28:03;;;;;;;;;;;5.80;99.90;;;;;;5114101;28;19998;-71
2022/03/28 02:30:28;;;;;;;;;;;5.80;99.90;;;;;;5113124;28;19915;-71
2022/03/28 02:32:54;;;;;;;;;;;5.80;99.90;;;;;;5096349;28;19942;-71
2022/03/28 02:35:20;;;;;;;;;;;5.80;99.90;;;;;;5113117;28;19919;-71
2022/03/28 02:37:47;;;;;;;;;;;5.80;99.90;;;;;;5113415;28;20352;-71
2022/03/28 02:40:12;;;;;;;;;;;5.80;99.90;;;;;;5112949;28;20006;-71
2022/03/28 02:42:38;;;;;;;;;;;5.70;99.90;;;;;;5113577;28;20002;-71
2022/03/28 02:45:04;;;;;;;;;;;5.70;99.90;;;;;;5095813;28;20281;-71
2022/03/28 02:47:29;;;;;;;;;;;5.70;99.90;;;;;;5113018;28;21902;-71
2022/03/28 02:49:55;;;;;;;;;;;5.60;99.90;;;;;;5112911;28;19962;-71
2022/03/28 02:52:22;;;;;;;;;;;5.50;99.90;;;;;;5094861;28;19919;-71
2022/03/28 02:54:48;;;;;;;;;;;5.50;99.90;;;;;;5112922;28;19922;-71
2022/03/28 02:57:13;;;;;;;;;;;5.50;99.90;;;;;;5112761;28;19998;-71
2022/03/28 02:59:39;;;;;;;;;;;5.50;99.90;;;;;;5129757;27;20048;-71
2022/03/28 03:02:05;;;;;;;;;;;5.60;99.90;;;;;;5111017;28;20392;-71
2022/03/28 03:04:34;;;;;;;;;;;5.50;99.90;;;;;;5107044;28;20649;-71
2022/03/28 03:07:00;;;;;;;;;;;5.60;99.90;;;;;;5113465;28;20286;-72
2022/03/28 03:09:26;;;;;;;;;;;5.60;99.90;;;;;;5096256;28;19963;-79
2022/03/28 03:11:52;;;;;;;;;;;5.60;99.90;;;;;;5113486;28;19989;-80
2022/03/28 03:14:17;;;;;;;;;;;5.60;99.90;;;;;;5113885;28;19971;-79
2022/03/28 03:16:43;;;;;;;;;;;5.60;99.90;;;;;;5114946;27;20381;-81
2022/03/28 03:19:09;;;;;;;;;;;5.60;99.90;;;;;;5117199;27;20083;-79
2022/03/28 03:21:35;;;;;;;;;;;5.60;99.90;;;;;;5099981;27;19927;-79
2022/03/28 03:24:01;;;;;;;;;;;5.50;99.90;;;;;;5100322;27;20339;-80
2022/03/28 03:26:27;;;;;;;;;;;5.50;99.90;;;;;;5117332;27;19926;-79
2022/03/28 03:28:55;;;;;;;;;;;5.50;99.90;;;;;;5080280;28;20303;-80
2022/03/28 03:31:21;;;;;;;;;;;5.50;99.90;;;;;;5113772;27;19926;-80
2022/03/28 03:33:47;;;;;;;;;;;5.40;99.90;;;;;;5113666;28;19979;-80
2022/03/28 03:36:13;;;;;;;;;;;5.40;99.90;;;;;;5112296;27;19960;-79
2022/03/28 03:38:38;;;;;;;;;;;5.40;99.90;;;;;;5116472;27;20396;-80
2022/03/28 03:41:04;;;;;;;;;;;5.40;99.90;;;;;;5099531;27;19946;-79
2022/03/28 03:43:30;;;;;;;;;;;5.40;99.90;;;;;;5116733;27;19915;-80
2022/03/28 03:45:55;;;;;;;;;;;5.30;99.90;;;;;;5115465;27;20344;-79
2022/03/28 03:48:22;;;;;;;;;;;5.40;99.90;;;;;;5134719;27;19919;-80
2022/03/28 03:50:47;;;;;;;;;;;5.40;99.90;;;;;;5116273;27;19931;-80
2022/03/28 03:53:14;;;;;;;;;;;5.40;99.90;;;;;;5116698;27;19921;-80
2022/03/28 03:55:39;;;;;;;;;;;5.30;99.90;;;;;;5116306;27;20430;-80
2022/03/28 03:58:05;;;;;;;;;;;5.40;99.90;;;;;;5116226;27;19915;-80
2022/03/28 04:00:31;;;;;;;;;;;5.30;99.90;;;;;;5112779;28;19927;-79
2022/03/28 04:02:57;;;;;;;;;;;5.30;99.90;;;;;;5114404;27;19919;-80
2022/03/28 04:05:22;;;;;;;;;;;5.30;99.90;;;;;;5115521;27;20285;-80
2022/03/28 04:07:48;;;;;;;;;;;5.20;99.90;;;;;;5116070;27;19943;-80
2022/03/28 04:10:14;;;;;;;;;;;5.20;99.90;;;;;;5112354;28;19946;-80
2022/03/28 04:12:40;;;;;;;;;;;5.30;99.90;;;;;;5094451;28;20351;-79
2022/03/28 04:15:06;;;;;;;;;;;5.20;99.90;;;;;;5111148;28;20294;-80
2022/03/28 04:17:42;;;;;;;;;;;5.10;99.90;;;;;;5112661;28;19919;-80
2022/03/28 04:20:09;;;;;;;;;;;5.10;99.90;;;;;;5094477;28;20270;-80
2022/03/28 04:22:34;;;;;;;;;;;5.00;99.90;;;;;;5104495;28;20004;-80
2022/03/28 04:25:00;;;;;;;;;;;5.10;99.90;;;;;;5112734;28;19923;-80
2022/03/28 04:27:25;;;;;;;;;;;5.10;99.90;;;;;;5110941;28;19919;-79
2022/03/28 04:29:51;;;;;;;;;;;5.00;99.90;;;;;;5110991;28;19951;-80
2022/03/28 04:32:16;;;;;;;;;;;5.00;99.90;;;;;;5111980;28;19924;-80
2022/03/28 04:34:42;;;;;;;;;;;4.90;99.90;;;;;;5112269;28;19915;-79
2022/03/28 04:37:07;;;;;;;;;;;5.00;99.90;;;;;;5112126;28;20002;-79
2022/03/28 04:39:33;;;;;;;;;;;4.90;99.90;;;;;;5094330;28;19920;-80
2022/03/28 04:41:59;;;;;;;;;;;4.90;99.90;;;;;;5091657;28;19930;-80
2022/03/28 04:44:24;;;;;;;;;;;4.90;99.90;;;;;;5109068;28;19916;-79
2022/03/28 04:46:50;;;;;;;;;;;5.10;99.90;;;;;;5113433;28;19916;-80
2022/03/28 04:49:15;;;;;;;;;;;5.10;99.90;;;;;;5112055;28;19998;-78
2022/03/28 04:51:41;;;;;;;;;;;5.00;99.90;;;;;;5111240;28;19927;-78
2022/03/28 04:54:07;;;;;;;;;;;5.10;99.90;;;;;;5103438;28;19923;-79
2022/03/28 04:56:34;;;;;;;;;;;5.00;99.90;;;;;;5091317;28;19928;-80
2022/03/28 04:59:00;;;;;;;;;;;5.20;99.90;;;;;;5086850;28;19923;-78
2022/03/28 05:01:26;;;;;;;;;;;5.20;99.90;;;;;;5111681;28;19920;-78
2022/03/28 05:03:51;;;;;;;;;;;5.20;99.90;;;;;;5111172;28;19943;-79
2022/03/28 05:06:17;;;;;;;;;;;5.20;99.90;;;;;;5111751;28;20002;-78
2022/03/28 05:08:42;;;;;;;;;;;5.10;99.90;;;;;;5111972;28;19916;-80
2022/03/28 05:11:08;;;;;;;;;;;5.20;99.90;;;;;;5111586;28;20355;-78
2022/03/28 05:13:33;;;;;;;;;;;5.20;99.90;;;;;;5106870;28;19919;-79
2022/03/28 05:15:59;;;;;;;;;;;5.20;99.90;;;;;;5102485;27;20414;-80
2022/03/28 05:18:25;;;;;;;;;;;5.20;99.90;;;;;;5098922;27;19925;-71
2022/03/28 05:20:50;;;;;;;;;;;5.20;99.90;;;;;;5079957;28;20324;-71
2022/03/28 05:23:16;;;;;;;;;;;5.10;99.90;;;;;;5097801;28;19920;-71
2022/03/28 05:25:43;;;;;;;;;;;5.10;99.90;;;;;;5094204;28;20299;-71
2022/03/28 05:28:09;;;;;;;;;;;5.10;99.90;;;;;;5095848;28;19968;-71
2022/03/28 05:30:35;;;;;;;;;;;5.20;99.90;;;;;;5095620;28;20463;-71
2022/03/28 05:33:02;;;;;;;;;;;5.20;99.90;;;;;;5096456;28;19932;-71
2022/03/28 05:35:28;;;;;;;;;;;5.10;99.90;;;;;;5093453;28;19930;-69
2022/03/28 05:37:53;;;;;;;;;;;5.10;99.90;;;;;;5075934;28;19916;-71
2022/03/28 05:40:19;;;;;;;;;;;5.10;99.90;;;;;;5092993;28;19916;-71
2022/03/28 05:42:45;;;;;;;;;;;5.10;99.90;;;;;;5103534;28;19928;-72
2022/03/28 05:45:11;;;;;;;;;;;5.10;99.90;;;;;;5086236;28;20355;-71
2022/03/28 05:47:37;;;;;;;;;;;5.10;99.90;;;;;;5107383;28;20401;-70
2022/03/28 05:50:03;;;;;;;;;;;5.10;99.90;;;;;;5089031;28;19963;-71
2022/03/28 05:52:37;;;;;;;;;;;5.10;99.90;;;;;;5101577;28;19996;-72
2022/03/28 05:55:03;;;;;;;;;;;5.20;99.90;;;;;;5108864;28;19966;-71
2022/03/28 05:57:29;;;;;;;;;;;5.10;99.90;;;;;;5092202;28;19926;-70
2022/03/28 05:59:54;;;;;;;;;;;5.10;99.90;;;;;;5104627;28;20304;-71
2022/03/28 06:02:20;;;;;;;;;;;5.20;99.90;;;;;;5109045;28;19923;-71
2022/03/28 06:04:45;;;;;;;;;;;5.20;99.90;;;;;;5109249;28;19916;-72
2022/03/28 06:07:11;;;;;;;;;;;5.10;99.90;;;;;;5106366;28;19954;-71
2022/03/28 06:09:37;;;;;;;;;;;5.20;99.90;;;;;;5102587;28;19949;-71
2022/03/28 06:12:02;;;;;;;;;;;5.20;99.90;;;;;;5088899;28;19965;-73
2022/03/28 06:14:28;;;;;;;;;;;5.20;99.90;;;;;;5088435;28;19920;-71
2022/03/28 06:16:53;;;;;;;;;;;5.20;99.90;;;;;;5089051;28;20017;-71
2022/03/28 06:19:19;;;;;;;;;;;5.20;99.90;;;;;;5072464;28;19969;-71
2022/03/28 06:21:44;;;;;;;;;;;5.20;99.90;;;;;;5090174;28;19920;-71
2022/03/28 06:24:10;;;;;;;;;;;5.20;99.90;;;;;;5088574;28;19916;-70
2022/03/28 06:26:36;;;;;;;;;;;5.30;99.90;;;;;;5088725;28;19977;-71
2022/03/28 06:29:01;;;;;;;;;;;5.30;99.90;;;;;;5089098;28;19943;-70
2022/03/28 06:31:27;;;;;;;;;;;5.30;99.90;;;;;;5089217;28;19939;-70
2022/03/28 06:33:59;;;;;;;;;;;5.30;99.90;;;;;;5088870;28;20394;-70
2022/03/28 06:36:24;;;;;;;;;;;5.40;99.90;;;;;;5088202;28;20024;-71
2022/03/28 06:38:50;;;;;;;;;;;5.40;99.90;;;;;;5070496;28;20394;-70
2022/03/28 06:41:16;;;;;;;;;;;5.30;99.90;;;;;;5080627;28;19920;-70
2022/03/28 06:43:41;;;;;;;;;;;5.40;99.90;;;;;;5086934;28;20185;-70
2022/03/28 06:46:07;;;;;;;;;;;5.40;99.90;;;;;;5088177;28;19977;-71
2022/03/28 06:48:32;;;;;;;;;;;5.50;99.90;;;;;;5088211;28;19946;-71
2022/03/28 06:50:58;;;;;;;;;;;5.50;99.90;;;;;;5086637;28;20325;-71
2022/03/28 06:53:23;;;;;;;;;;;5.60;99.90;;;;;;5090493;28;19915;-71
2022/03/28 06:55:49;;;;;;;;;;;5.50;99.90;;;;;;5091515;28;19927;-71
2022/03/28 06:58:16;;;;;;;;;;;5.60;99.90;;;;;;5074251;28;19923;-72
2022/03/28 07:00:42;;;;;;;;;;;5.60;99.90;;;;;;5090340;28;19931;-72
2022/03/28 07:03:08;;;;;;;;;;;5.70;99.90;;;;;;5092265;28;19916;-72
2022/03/28 07:05:34;;;;;;;;;;;5.70;99.90;;;;;;5091607;28;19915;-72
2022/03/28 07:08:00;;;;;;;;;;;5.70;99.90;;;;;;5092115;28;20315;-72
2022/03/28 07:10:26;;;;;;;;;;;5.70;99.90;;;;;;5086049;28;19919;-72
2022/03/28 07:12:53;;;;;;;;;;;5.80;99.90;;;;;;5114350;28;19920;-72
2022/03/28 07:15:19;;;;;;;;;;;5.80;99.90;;;;;;5113148;28;19990;-71
2022/03/28 07:17:45;;;;;;;;;;;5.80;99.90;;;;;;5112764;28;20019;-72
2022/03/28 07:20:10;;;;;;;;;;;5.90;99.90;;;;;;5112576;28;19926;-71
2022/03/28 07:22:36;;;;;;;;;;;5.90;99.90;;;;;;5112530;28;20602;-71
2022/03/28 07:25:02;;;;;;;;;;;5.90;99.90;;;;;;5112508;28;19920;-71
2022/03/28 07:27:27;;;;;;;;;;;6.00;99.90;;;;;;5113147;28;19927;-71
2022/03/28 07:29:53;;;;;;;;;;;5.90;99.90;;;;;;5112383;28;20340;-71
2022/03/28 07:32:18;;;;;;;;;;;5.90;99.90;;;;;;5112183;28;19931;-70
2022/03/28 07:34:44;;;;;;;;;;;6.00;99.90;;;;;;5112618;28;19916;-71
2022/03/28 07:37:10;;;;;;;;;;;6.00;99.90;;;;;;5095801;28;19915;-71
2022/03/28 07:39:38;;;;;;;;;;;6.10;99.90;;;;;;5112928;28;19920;-70
2022/03/28 07:42:10;;;;;;;;;;;6.10;99.90;;;;;;5111606;28;19927;-71
2022/03/28 07:44:35;;;;;;;;;;;6.20;99.90;;;;;;5087111;28;19926;-71
2022/03/28 07:47:03;;;;;;;;;;;6.30;99.90;;;;;;5107978;28;19919;-71
2022/03/28 07:49:30;;;;;;;;;;;6.40;99.90;;;;;;5110925;28;19919;-71
2022/03/28 07:51:55;;;;;;;;;;;6.40;99.90;;;;;;5106092;28;19916;-70
2022/03/28 07:54:21;;;;;;;;;;;6.40;99.90;;;;;;5111864;28;20268;-70
2022/03/28 07:56:46;;;;;;;;;;;6.50;99.90;;;;;;5109568;28;20298;-69
2022/03/28 07:59:12;;;;;;;;;;;6.50;99.90;;;;;;5106412;28;19915;-69
2022/03/28 08:01:38;;;;;;;;;;;6.60;99.90;;;;;;5093245;28;19927;-70
2022/03/28 08:04:05;;;;;;;;;;;6.60;99.90;;;;;;5109322;28;20057;-70
2022/03/28 08:06:30;;;;;;;;;;;6.70;99.90;;;;;;5112140;28;19919;-70
2022/03/28 08:08:56;;;;;;;;;;;6.70;99.90;;;;;;5111824;28;20614;-70
2022/03/28 08:11:21;;;;;;;;;;;6.80;99.90;;;;;;5110608;28;19974;-70
2022/03/28 08:13:47;;;;;;;;;;;6.80;99.90;;;;;;5111615;28;20383;-70
2022/03/28 08:16:13;;;;;;;;;;;6.90;99.90;;;;;;5111832;28;19968;-71
2022/03/28 08:18:41;;;;;;;;;;;6.80;99.90;;;;;;5111209;28;20382;-70
2022/03/28 08:21:06;;;;;;;;;;;6.90;99.90;;;;;;5104069;28;19931;-71
2022/03/28 08:23:32;;;;;;;;;;;6.90;99.90;;;;;;5111007;28;19920;-70
2022/03/28 08:25:59;;;;;;;;;;;6.90;99.90;;;;;;5111026;28;19927;-71
2022/03/28 08:28:26;;;;;;;;;;;7.00;99.90;;;;;;5111530;28;20309;-69
2022/03/28 08:30:52;;;;;;;;;;;7.00;99.90;;;;;;5110869;28;19985;-71
2022/03/28 08:33:17;;;;;;;;;;;7.10;99.90;;;;;;5110755;28;19959;-69
2022/03/28 08:35:43;;;;;;;;;;;7.10;99.90;;;;;;5068638;28;19961;-71
2022/03/28 08:38:09;;;;;;;;;;;7.10;99.90;;;;;;5094163;28;19920;-71
2022/03/28 08:40:34;;;;;;;;;;;7.00;99.90;;;;;;5111289;28;19923;-70
2022/03/28 08:43:00;;;;;;;;;;;7.10;99.90;;;;;;5093662;28;19971;-70
2022/03/28 08:45:26;;;;;;;;;;;7.10;99.90;;;;;;5111010;28;19969;-70
2022/03/28 08:47:53;;;;;;;;;;;7.20;99.90;;;;;;5111296;28;19920;-70
2022/03/28 08:50:20;;;;;;;;;;;7.10;99.90;;;;;;5111037;28;19916;-70
2022/03/28 08:52:46;;;;;;;;;;;7.20;99.90;;;;;;5110907;28;19915;-70
2022/03/28 08:55:12;;;;;;;;;;;7.30;99.90;;;;;;5110875;28;20286;-69
2022/03/28 08:57:38;;;;;;;;;;;7.40;99.90;;;;;;5110973;28;19915;-70
2022/03/28 09:00:05;;;;;;;;;;;7.50;99.90;;;;;;5110709;28;19923;-70
2022/03/28 09:02:37;;;;;;;;;;;7.50;99.90;;;;;;5110868;28;19919;-70
2022/03/28 09:05:03;;;;;;;;;;;7.50;99.90;;;;;;5110445;28;20358;-71
2022/03/28 09:07:28;;;;;;;;;;;7.60;99.90;;;;;;5093866;28;19999;-71
2022/03/28 09:10:02;;;;;;;;;;;7.60;99.90;;;;;;5093016;28;19927;-71
2022/03/28 09:12:27;;;;;;;;;;;7.60;99.90;;;;;;5111240;28;19919;-71
2022/03/28 09:14:55;;;;;;;;;;;7.60;99.90;;;;;;5110560;28;19915;-71
2022/03/28 09:17:21;;;;;;;;;;;7.70;99.90;;;;;;5111121;28;19915;-71
2022/03/28 09:19:55;;;;;;;;;;;7.70;99.90;;;;;;5110528;28;20271;-70
2022/03/28 09:22:23;;;;;;;;;;;7.70;99.90;;;;;;5110282;28;19927;-70
2022/03/28 09:24:50;;;;;;;;;;;7.80;99.90;;;;;;5110751;28;20002;-70
2022/03/28 09:27:15;;;;;;;;;;;7.80;99.90;;;;;;5111145;28;19916;-70
2022/03/28 09:29:54;;;;;;;;;;;7.90;99.90;;;;;;5110990;28;20375;-70
2022/03/28 09:32:21;;;;;;;;;;;7.90;99.90;;;;;;5109977;28;19919;-70
2022/03/28 09:35:00;;;;;;;;;;;8.00;99.90;;;;;;5076497;28;19972;-70
2022/03/28 09:37:26;;;;;;;;;;;8.10;99.90;;;;;;5109759;28;20038;-70
2022/03/28 09:39:51;;;;;;;;;;;8.10;99.90;;;;;;5110035;28;20069;-71
2022/03/28 09:42:17;;;;;;;;;;;8.10;99.90;;;;;;5110012;28;19927;-70
2022/03/28 09:44:45;;;;;;;;;;;8.10;99.90;;;;;;5092959;28;19915;-70
2022/03/28 09:47:12;;;;;;;;;;;8.10;99.90;;;;;;5109155;28;19964;-76
2022/03/28 09:49:39;;;;;;;;;;;8.10;99.90;;;;;;5092404;28;20018;-72
2022/03/28 09:52:14;;;;;;;;;;;8.10;99.90;;;;;;5109495;28;20343;-72
2022/03/28 09:54:44;;;;;;;;;;;8.20;99.90;;;;;;5091882;28;19965;-70
2022/03/28 09:57:10;;;;;;;;;;;8.30;99.90;;;;;;5104539;28;20000;-70
2022/03/28 09:59:38;;;;;;;;;;;8.40;99.90;;;;;;5107345;28;19924;-68
2022/03/28 10:02:13;;;;;;;;;;;8.50;99.90;;;;;;5088259;28;20346;-69
2022/03/28 10:04:39;;;;;;;;;;;8.60;99.90;;;;;;5089780;28;19920;-70
2022/03/28 10:07:05;;;;;;;;;;;8.60;99.90;;;;;;5101878;28;19967;-71
2022/03/28 10:09:30;;;;;;;;;;;8.70;99.90;;;;;;5109514;27;20357;-71
2022/03/28 10:11:57;;;;;;;;;;;9.00;99.90;;;;;;5112649;27;19998;-71
2022/03/28 10:14:23;;;;;;;;;;;9.10;99.90;;;;;;5105757;27;20001;-70
2022/03/28 10:16:49;;;;;;;;;;;9.20;99.90;;;;;;5093827;27;19967;-71
2022/03/28 10:19:15;;;;;;;;;;;9.20;99.90;;;;;;5112294;27;20388;-71
2022/03/28 10:21:40;;;;;;;;;;;9.30;99.90;;;;;;5106036;28;19930;-71
2022/03/28 10:24:14;;;;;;;;;;;9.30;99.90;;;;;;5112443;28;20282;-71
2022/03/28 10:26:42;;;;;;;;;;;9.40;99.90;;;;;;5111913;28;19958;-71
2022/03/28 10:29:12;;;;;;;;;;;9.20;99.90;;;;;;5112796;28;19915;-70
2022/03/28 10:31:54;;;;;;;;;;;9.20;99.90;;;;;;5111305;28;19916;-71
2022/03/28 10:34:38;;;;;;;;;;;9.20;99.90;;;;;;5093843;28;19923;-71
2022/03/28 10:37:23;;;;;;;;;;;9.40;99.90;;;;;;5112562;28;19927;-71
2022/03/28 10:39:49;;;;;;;;;;;9.60;99.90;;;;;;5112646;28;20052;-71
2022/03/28 10:42:23;;;;;;;;;;;9.60;99.90;;;;;;5111841;28;19923;-71
2022/03/28 10:45:05;;;;;;;;;;;9.60;99.90;;;;;;5095202;28;20282;-70
2022/03/28 10:47:44;;;;;;;;;;;9.50;99.90;;;;;;5094902;28;19915;-70
2022/03/28 10:50:11;;;;;;;;;;;9.40;99.90;;;;;;5083722;28;19927;-70
2022/03/28 10:52:36;;;;;;;;;;;9.60;99.90;;;;;;5111442;28;20636;-71
2022/03/28 10:55:06;;;;;;;;;;;9.80;99.90;;;;;;5110981;28;19919;-70
2022/03/28 10:57:32;;;;;;;;;;;9.90;99.90;;;;;;5112174;28;20042;-70
2022/03/28 11:00:09;;;;;;;;;;;10.00;99.90;;;;;;5111797;28;19923;-70
2022/03/28 11:02:36;;;;;;;;;;;9.90;99.90;;;;;;5112342;28;20283;-71
2022/03/28 11:05:06;;;;;;;;;;;9.90;99.90;;;;;;5095490;28;19927;-71
2022/03/28 11:07:31;;;;;;;;;;;10.00;99.90;;;;;;5112204;28;20401;-70
2022/03/28 11:10:02;;;;;;;;;;;10.00;99.90;;;;;;5112062;28;20368;-70
2022/03/28 11:12:29;;;;;;;;;;;10.00;99.90;;;;;;5112694;28;20346;-71
2022/03/28 11:15:02;;;;;;;;;;;10.00;99.90;;;;;;5112529;28;20239;-71
2022/03/28 11:17:32;;;;;;;;;;;10.00;99.90;;;;;;5112354;28;19919;-71
2022/03/28 11:19:58;;;;;;;;;;;10.00;99.90;;;;;;5112411;28;19995;-71
2022/03/28 11:22:44;;;;;;;;;;;10.10;99.90;;;;;;5095031;28;20002;-70
2022/03/28 11:25:28;;;;;;;;;;;10.30;99.90;;;;;;5111735;28;19968;-71
2022/03/28 11:28:03;;;;;;;;;;;10.30;99.90;;;;;;5111988;28;20285;-71
2022/03/28 11:30:28;;;;;;;;;;;10.60;99.90;;;;;;5112003;28;20378;-71
2022/03/28 11:32:54;;;;;;;;;;;10.80;99.90;;;;;;5112011;28;19915;-70
2022/03/28 11:35:20;;;;;;;;;;;11.20;99.90;;;;;;5112181;28;19915;-70
2022/03/28 11:37:47;;;;;;;;;;;11.30;99.90;;;;;;5113718;27;19930;-70
2022/03/28 11:40:12;;;;;;;;;;;11.30;99.90;;;;;;5115591;27;19919;-70
2022/03/28 11:42:44;;;;;;;;;;;11.30;99.90;;;;;;5095242;28;19968;-70
2022/03/28 11:45:10;;;;;;;;;;;11.20;99.90;;;;;;5112077;27;19915;-70
2022/03/28 11:47:37;;;;;;;;;;;11.10;99.90;;;;;;5115635;27;19919;-69
2022/03/28 11:50:04;;;;;;;;;;;11.20;99.90;;;;;;5115391;27;20274;-70
2022/03/28 11:52:31;;;;;;;;;;;11.50;99.90;;;;;;5133569;27;19923;-69
2022/03/28 11:54:57;;;;;;;;;;;11.60;99.90;;;;;;5115204;27;20282;-70
2022/03/28 12:00:24;;;;;;;;;;;11.60;99.90;;;;;;5115337;27;19921;-70
2022/03/28 12:02:51;;;;;;;;;;;11.60;99.90;;;;;;5090781;27;20002;-70
2022/03/28 12:05:25;;;;;;;;;;;11.60;99.90;;;;;;5115712;27;19949;-70
2022/03/28 12:07:52;;;;;;;;;;;11.50;99.90;;;;;;5115248;27;19922;-70
2022/03/28 12:10:17;;;;;;;;;;;11.40;99.90;;;;;;5115093;27;20381;-70
2022/03/28 12:12:43;;;;;;;;;;;11.50;99.90;;;;;;5115050;27;19915;-70
2022/03/28 12:15:09;;;;;;;;;;;11.30;99.90;;;;;;5115184;27;19927;-70
2022/03/28 12:17:35;;;;;;;;;;;11.40;99.90;;;;;;5115033;27;19915;-70
2022/03/28 12:20:04;;;;;;;;;;;11.90;99.90;;;;;;5097856;27;19919;-71
2022/03/28 12:22:29;;;;;;;;;;;12.40;99.90;;;;;;5115135;27;19930;-71
2022/03/28 12:24:56;;;;;;;;;;;12.50;99.90;;;;;;5114926;27;19915;-70
2022/03/28 12:27:24;;;;;;;;;;;12.00;99.90;;;;;;5098382;27;19943;-71
2022/03/28 12:29:53;;;;;;;;;;;12.10;99.90;;;;;;5114264;27;20011;-71
2022/03/28 12:32:19;;;;;;;;;;;12.40;99.90;;;;;;5115180;27;19927;-71
2022/03/28 12:34:45;;;;;;;;;;;12.40;99.90;;;;;;5114381;27;19915;-70
2022/03/28 12:37:15;;;;;;;;;;;12.20;99.90;;;;;;5114718;27;19915;-71
2022/03/28 12:39:44;;;;;;;;;;;12.20;99.90;;;;;;5114571;27;19964;-70
2022/03/28 12:42:24;;;;;;;;;;;12.20;99.90;;;;;;5114792;27;20026;-70
2022/03/28 12:44:52;;;;;;;;;;;12.40;99.90;;;;;;5097092;27;19926;-71
2022/03/28 12:47:17;;;;;;;;;;;12.50;99.90;;;;;;5114736;27;19975;-71
2022/03/28 12:49:43;;;;;;;;;;;12.60;99.90;;;;;;5114074;27;19923;-71
2022/03/28 12:52:10;;;;;;;;;;;12.50;99.90;;;;;;5097395;27;20018;-71
2022/03/28 12:54:36;;;;;;;;;;;12.70;99.90;;;;;;5114421;27;19942;-70
2022/03/28 12:57:02;;;;;;;;;;;12.30;99.90;;;;;;5113707;27;20382;-69
2022/03/28 12:59:34;;;;;;;;;;;11.90;99.90;;;;;;5113187;27;20018;-70
2022/03/28 13:02:16;;;;;;;;;;;11.80;99.90;;;;;;5111787;27;19919;-69
2022/03/28 13:04:41;;;;;;;;;;;11.70;99.90;;;;;;5091240;28;19927;-70
2022/03/28 13:07:07;;;;;;;;;;;11.70;99.90;;;;;;5111022;27;19919;-71
2022/03/28 13:09:32;;;;;;;;;;;11.70;99.90;;;;;;5131344;27;19915;-71
2022/03/28 13:12:08;;;;;;;;;;;11.80;99.90;;;;;;5112105;27;19919;-71
2022/03/28 13:14:34;;;;;;;;;;;11.40;99.90;;;;;;5089602;27;20360;-71
2022/03/28 13:17:10;;;;;;;;;;;11.40;99.90;;;;;;5096448;27;20010;-71
2022/03/28 13:19:36;;;;;;;;;;;11.30;99.90;;;;;;5096519;27;19972;-70
2022/03/28 13:22:04;;;;;;;;;;;11.20;99.90;;;;;;5113303;27;19927;-71
2022/03/28 13:24:31;;;;;;;;;;;11.30;99.90;;;;;;5113483;27;19991;-71
2022/03/28 13:28:01;;;;;;;;;;;11.60;99.90;;;;;;5096591;27;20267;-71
2022/03/28 13:29:48;;;;;;;;;;;11.80;99.90;;;;;;5113651;27;20481;-71
2022/03/28 13:32:14;;;;;;;;;;;11.90;99.90;;;;;;5113806;27;19984;-71
2022/03/28 13:34:39;;;;;;;;;;;11.90;99.90;;;;;;5096560;27;20396;-71
2022/03/28 13:37:05;;;;;;;;;;;11.50;99.90;;;;;;5113529;27;19930;-71
2022/03/28 13:39:32;;;;;;;;;;;11.30;99.90;;;;;;5096263;27;19919;-71
2022/03/28 13:41:57;;;;;;;;;;;11.10;99.90;;;;;;5096360;27;19994;-71
2022/03/28 13:44:24;;;;;;;;;;;11.10;99.90;;;;;;5113123;27;20014;-71
2022/03/28 13:46:50;;;;;;;;;;;11.00;99.90;;;;;;5096519;27;19927;-71
2022/03/28 13:49:16;;;;;;;;;;;11.10;99.90;;;;;;5112674;27;19990;-70
2022/03/28 13:51:42;;;;;;;;;;;11.00;99.90;;;;;;5113391;27;19919;-70
2022/03/28 13:54:08;;;;;;;;;;;11.00;99.90;;;;;;5113195;27;19941;-70
2022/03/28 13:56:33;;;;;;;;;;;11.10;99.90;;;;;;5113132;27;20259;-70
2022/03/28 13:58:59;;;;;;;;;;;11.20;99.90;;;;;;5092656;28;20319;-70
2022/03/28 14:01:28;;;;;;;;;;;11.10;99.90;;;;;;5109113;27;20002;-70
2022/03/28 14:03:54;;;;;;;;;;;11.10;99.90;;;;;;5112897;27;20450;-70
2022/03/28 14:06:20;;;;;;;;;;;11.10;99.90;;;;;;5112933;27;19923;-70
2022/03/28 14:08:45;;;;;;;;;;;11.00;99.90;;;;;;5112904;27;19916;-70
2022/03/28 14:11:12;;;;;;;;;;;11.20;99.90;;;;;;5095605;28;19923;-69
2022/03/28 14:13:38;;;;;;;;;;;11.20;99.90;;;;;;5112309;27;20378;-70
2022/03/28 14:16:04;;;;;;;;;;;11.30;99.90;;;;;;5112229;27;19962;-70
2022/03/28 14:18:29;;;;;;;;;;;11.20;99.90;;;;;;5113040;28;19915;-70
2022/03/28 14:20:55;;;;;;;;;;;10.90;99.90;;;;;;5112820;28;19927;-79
2022/03/28 14:23:20;;;;;;;;;;;10.90;99.90;;;;;;5095906;28;19946;-79
2022/03/28 14:25:46;;;;;;;;;;;10.70;99.90;;;;;;5112835;28;19919;-79
2022/03/28 14:28:12;;;;;;;;;;;10.80;99.90;;;;;;5113288;28;20024;-79
2022/03/28 14:30:38;;;;;;;;;;;10.60;99.90;;;;;;5112325;28;20006;-78